Time;durP1;ratioP1;P1;durP2;ratioP2;P2;SDS_P1;SDS_P2;PMS_P1;PMS_P2;Temp;Humidity;BMP_temperature;BMP_pressure;BME280_temperature;BME280_humidity;BME280_pressure;Samples;Min_cycle;Max_cycle;Signal;HPM_P1;HPM_P2
2023/04/12 00:00:54;;;;;;;2.17;0.80;;;3.90;99.90;;;;;;5092293;28;20377;-50
2023/04/12 00:03:21;;;;;;;3.72;1.05;;;3.80;99.90;;;;;;5112864;28;20053;-50
2023/04/12 00:05:53;;;;;;;4.45;1.02;;;3.80;99.90;;;;;;5112679;28;20031;-50
2023/04/12 00:08:25;;;;;;;4.47;1.00;;;3.80;99.90;;;;;;5112204;28;20082;-51
2023/04/12 00:10:51;;;;;;;2.47;1.30;;;3.80;99.90;;;;;;5083220;28;20044;-53
2023/04/12 00:13:18;;;;;;;2.65;1.05;;;3.70;99.90;;;;;;5088108;28;20059;-51
2023/04/12 00:15:45;;;;;;;3.97;1.10;;;3.70;99.90;;;;;;5112387;28;20040;-51
2023/04/12 00:18:12;;;;;;;7.22;0.85;;;3.80;99.90;;;;;;5112042;28;20094;-51
2023/04/12 00:20:39;;;;;;;1.67;0.80;;;3.80;99.90;;;;;;5112158;28;20066;-51
2023/04/12 00:23:06;;;;;;;4.47;1.20;;;3.90;99.90;;;;;;5103823;28;20107;-51
2023/04/12 00:25:32;;;;;;;2.15;1.10;;;3.90;99.90;;;;;;5111945;28;20043;-51
2023/04/12 00:27:59;;;;;;;4.93;1.05;;;3.90;99.90;;;;;;5112136;28;20047;-51
2023/04/12 00:30:27;;;;;;;2.03;0.60;;;3.80;99.90;;;;;;5106083;28;20055;-50
2023/04/12 00:32:53;;;;;;;;;;;3.80;99.90;;;;;;5109721;28;20071;-51
2023/04/12 00:35:20;;;;;;;2.35;0.95;;;3.80;99.90;;;;;;5112038;28;19935;-53
2023/04/12 00:37:47;;;;;;;3.40;1.05;;;3.80;99.90;;;;;;5112604;28;20063;-50
2023/04/12 00:40:14;;;;;;;2.10;0.80;;;3.90;99.90;;;;;;5102043;28;20166;-53
2023/04/12 00:42:41;;;;;;;0.90;0.77;;;3.90;99.90;;;;;;5112294;28;20040;-52
2023/04/12 00:45:08;;;;;;;2.60;1.10;;;3.90;99.90;;;;;;5082986;28;20044;-52
2023/04/12 00:47:36;;;;;;;2.47;1.17;;;3.90;99.90;;;;;;5099790;28;20111;-51
2023/04/12 00:50:04;;;;;;;4.10;1.10;;;3.90;99.90;;;;;;5072207;28;20075;-50
2023/04/12 00:52:33;;;;;;;3.88;1.30;;;3.90;99.90;;;;;;5074297;28;20048;-51
2023/04/12 00:55:02;;;;;;;2.60;1.30;;;3.90;99.90;;;;;;5086923;28;20187;-49
2023/04/12 00:57:37;;;;;;;3.35;1.90;;;3.80;99.90;;;;;;5061860;28;20052;-50
2023/04/12 01:00:12;;;;;;;3.45;1.35;;;3.80;99.90;;;;;;5070829;28;20102;-52
2023/04/12 01:02:41;;;;;;;3.00;1.50;;;3.80;99.90;;;;;;5053295;28;20040;-50
2023/04/12 01:05:13;;;;;;;3.03;1.60;;;3.80;99.90;;;;;;5077492;28;20492;-50
2023/04/12 01:07:53;;;;;;;5.45;1.90;;;3.90;99.90;;;;;;5100758;28;20035;-52
2023/04/12 01:10:33;;;;;;;9.32;1.90;;;3.90;99.90;;;;;;5110479;28;20059;-52
2023/04/12 01:13:11;;;;;;;4.43;2.17;;;3.90;99.90;;;;;;5089834;28;20047;-50
2023/04/12 01:15:50;;;;;;;7.35;1.80;;;3.90;99.90;;;;;;5061318;28;20075;-52
2023/04/12 01:18:22;;;;;;;7.00;2.33;;;3.90;99.90;;;;;;5053148;28;20076;-50
2023/04/12 01:21:12;;;;;;;4.07;1.60;;;4.00;99.90;;;;;;5053133;28;20094;-50
2023/04/12 01:24:16;;;;;;;5.75;2.40;;;4.00;99.90;;;;;;5091195;28;20557;-50
2023/04/12 01:26:46;;;;;;;5.63;2.10;;;4.00;99.90;;;;;;5111520;28;20044;-50
2023/04/12 01:29:18;;;;;;;6.50;2.40;;;4.00;99.90;;;;;;5111454;28;20088;-51
2023/04/12 01:32:00;;;;;;;6.50;2.65;;;4.00;99.90;;;;;;5074966;28;20036;-51
2023/04/12 01:34:30;;;;;;;7.15;2.42;;;3.90;99.90;;;;;;5084519;28;20119;-50
2023/04/12 01:37:00;;;;;;;4.82;2.17;;;3.90;99.90;;;;;;5073241;28;20040;-50
2023/04/12 01:39:28;;;;;;;4.85;2.00;;;3.90;99.90;;;;;;5070364;28;20050;-50
2023/04/12 01:41:55;;;;;;;6.00;2.00;;;3.90;99.90;;;;;;5081649;28;20554;-50
2023/04/12 01:44:22;;;;;;;4.90;1.73;;;3.90;99.90;;;;;;5110834;28;20057;-52
2023/04/12 01:46:51;;;;;;;4.22;1.70;;;3.90;99.90;;;;;;5091470;28;20071;-51
2023/04/12 01:49:20;;;;;;;6.63;1.77;;;4.00;99.90;;;;;;5059842;28;20098;-51
2023/04/12 01:52:00;;;;;;;3.20;1.30;;;4.10;99.90;;;;;;5060495;28;20485;-54
2023/04/12 01:54:29;;;;;;;7.63;1.67;;;4.10;99.90;;;;;;5072612;28;20050;-52
2023/04/12 01:57:02;;;;;;;4.57;1.83;;;4.10;99.90;;;;;;5070139;28;20500;-51
2023/04/12 01:59:39;;;;;;;5.15;1.75;;;4.10;99.90;;;;;;5072656;28;20086;-50
2023/04/12 02:02:07;;;;;;;4.10;1.67;;;4.10;99.90;;;;;;5072136;28;20059;-51
2023/04/12 02:04:35;;;;;;;5.80;2.30;;;4.00;99.90;;;;;;5055815;28;20774;-52
2023/04/12 02:07:02;;;;;;;5.40;2.20;;;4.00;99.90;;;;;;5064666;28;20049;-50
2023/04/12 02:09:29;;;;;;;9.73;2.45;;;4.00;99.90;;;;;;5096621;28;20560;-50
2023/04/12 02:11:56;;;;;;;4.70;2.10;;;4.00;99.90;;;;;;5096574;28;20109;-52
2023/04/12 02:14:23;;;;;;;5.68;2.53;;;3.90;99.90;;;;;;5097189;28;20105;-50
2023/04/12 02:16:53;;;;;;;3.03;2.00;;;3.90;99.90;;;;;;5098055;22;20051;-49
2023/04/12 02:19:20;;;;;;;4.15;2.42;;;4.00;99.90;;;;;;5095441;28;20040;-51
2023/04/12 02:21:48;;;;;;;4.45;2.78;;;4.00;99.90;;;;;;5096695;28;20523;-50
2023/04/12 02:24:15;;;;;;;4.32;2.80;;;3.90;99.90;;;;;;5118505;27;20042;-51
2023/04/12 02:26:43;;;;;;;5.50;2.15;;;3.90;99.90;;;;;;5134570;27;20506;-50
2023/04/12 02:29:11;;;;;;;3.65;2.25;;;3.80;99.90;;;;;;5116541;27;20043;-52
2023/04/12 02:31:38;;;;;;;5.65;2.42;;;3.80;99.90;;;;;;5105548;28;20139;-50
2023/04/12 02:34:09;;;;;;;10.93;3.05;;;3.80;99.90;;;;;;5097865;27;20131;-51
2023/04/12 02:36:39;;;;;;;6.60;3.03;;;3.80;99.90;;;;;;5116630;27;20070;-51
2023/04/12 02:39:06;;;;;;;8.18;3.00;;;3.90;99.90;;;;;;5116530;27;20047;-51
2023/04/12 02:41:34;;;;;;;8.32;3.03;;;3.90;99.90;;;;;;5104501;28;20044;-52
2023/04/12 02:44:02;;;;;;;5.80;3.13;;;4.00;99.90;;;;;;5087853;28;20048;-52
2023/04/12 02:46:29;;;;;;;;;;;4.00;99.90;;;;;;5096643;28;20054;-50
2023/04/12 02:48:58;;;;;;;7.82;3.60;;;4.00;99.90;;;;;;5095330;28;19958;-51
2023/04/12 02:51:33;;;;;;;5.40;2.85;;;4.00;99.90;;;;;;5107410;28;20036;-51
2023/04/12 02:54:01;;;;;;;6.68;3.00;;;4.00;99.90;;;;;;5093629;27;20074;-50
2023/04/12 02:56:37;;;;;;;6.50;3.05;;;4.10;99.90;;;;;;5116268;27;20049;-51
2023/04/12 02:59:19;;;;;;;5.55;2.60;;;4.10;99.90;;;;;;5083867;28;20139;-50
2023/04/12 03:02:06;;;;;;;6.50;2.80;;;4.20;99.90;;;;;;5116615;27;20422;-50
2023/04/12 03:04:36;;;;;;;7.85;2.00;;;4.10;99.90;;;;;;5116146;27;20088;-50
2023/04/12 03:07:04;;;;;;;4.90;1.60;;;4.00;99.90;;;;;;5101665;27;20101;-51
2023/04/12 03:09:37;;;;;;;3.40;1.58;;;3.90;99.90;;;;;;5115680;27;20081;-51
2023/04/12 03:12:05;;;;;;;5.20;1.80;;;3.90;99.90;;;;;;5115920;27;20389;-52
2023/04/12 03:14:36;;;;;;;4.68;2.22;;;3.80;99.90;;;;;;5114722;28;20067;-52
2023/04/12 03:17:05;;;;;;;6.30;2.13;;;3.80;99.90;;;;;;5087776;27;20032;-51
2023/04/12 03:19:35;;;;;;;3.88;2.33;;;3.80;99.90;;;;;;5115542;27;20053;-51
2023/04/12 03:22:05;;;;;;;6.88;2.67;;;3.80;99.90;;;;;;5116044;27;20047;-51
2023/04/12 03:24:36;;;;;;;6.57;2.90;;;3.80;99.90;;;;;;5096602;28;20040;-50
2023/04/12 03:27:05;;;;;;;5.97;2.35;;;3.80;99.90;;;;;;5074869;28;20046;-50
2023/04/12 03:29:34;;;;;;;5.53;2.30;;;3.80;99.90;;;;;;5073495;28;20093;-52
2023/04/12 03:32:02;;;;;;;6.15;2.30;;;3.90;99.90;;;;;;5074782;28;20051;-52
2023/04/12 03:34:34;;;;;;;6.05;2.35;;;3.90;99.90;;;;;;5088403;28;20493;-52
2023/04/12 03:37:09;;;;;;;3.20;2.30;;;4.00;99.90;;;;;;5074689;28;20040;-51
2023/04/12 03:39:39;;;;;;;4.28;2.80;;;4.10;99.90;;;;;;5074796;28;20044;-52
2023/04/12 03:42:08;;;;;;;3.63;1.88;;;4.10;99.90;;;;;;5100245;27;20039;-50
2023/04/12 03:44:51;;;;;;;7.25;2.90;;;4.10;99.90;;;;;;5115441;27;20070;-52
2023/04/12 03:47:20;;;;;;;9.15;3.78;;;4.10;99.90;;;;;;5115286;27;20062;-50
2023/04/12 03:49:48;;;;;;;7.55;3.63;;;4.10;99.90;;;;;;5100305;28;20040;-52
2023/04/12 03:52:34;;;;;;;7.95;3.55;;;4.10;99.90;;;;;;5079825;28;20036;-52
2023/04/12 03:55:06;;;;;;;9.80;3.55;;;4.10;99.90;;;;;;5074476;28;20071;-52
2023/04/12 03:57:34;;;;;;;7.35;3.63;;;4.20;99.90;;;;;;5087853;28;20236;-54
2023/04/12 04:00:02;;;;;;;12.75;4.10;;;4.20;99.90;;;;;;5080480;28;20504;-55
2023/04/12 04:02:43;;;;;;;6.40;3.40;;;4.30;99.90;;;;;;5102106;28;20040;-51
2023/04/12 04:05:11;;;;;;;;;;;4.20;99.90;;;;;;5085203;28;20105;-51
2023/04/12 04:07:40;;;;;;;12.25;4.07;;;4.30;99.90;;;;;;5079396;28;19974;-51
2023/04/12 04:10:08;;;;;;;7.60;4.03;;;4.30;99.90;;;;;;5092720;28;20050;-50
2023/04/12 04:12:38;;;;;;;8.70;3.90;;;4.20;99.90;;;;;;5094963;28;20054;-52
2023/04/12 04:15:09;;;;;;;14.40;3.97;;;4.20;99.90;;;;;;5094281;27;20501;-50
2023/04/12 04:17:36;;;;;;;;;;;4.30;99.90;;;;;;5088694;28;20044;-51
2023/04/12 04:20:04;;;;;;;6.05;3.30;;;4.20;99.90;;;;;;5073760;28;19920;-51
2023/04/12 04:22:33;;;;;;;5.32;2.70;;;4.30;99.90;;;;;;5093071;28;20043;-51
2023/04/12 04:25:02;;;;;;;3.88;2.67;;;4.30;99.90;;;;;;5087974;27;20043;-50
2023/04/12 04:27:33;;;;;;;6.47;2.97;;;4.40;99.90;;;;;;5114001;27;20709;-53
2023/04/12 04:30:01;;;;;;;5.60;2.90;;;4.30;99.90;;;;;;5087913;27;20067;-49
2023/04/12 04:32:29;;;;;;;6.78;2.88;;;4.40;99.90;;;;;;5103146;27;20053;-51
2023/04/12 04:34:59;;;;;;;;;;;4.40;99.90;;;;;;5095831;28;20043;-51
2023/04/12 04:37:35;;;;;;;;;;;4.40;99.90;;;;;;5088601;28;20003;-52
2023/04/12 04:40:07;;;;;;;4.03;2.70;;;4.40;99.90;;;;;;5092947;28;20009;-52
2023/04/12 04:42:41;;;;;;;6.25;2.63;;;4.40;99.90;;;;;;5093310;28;20297;-51
2023/04/12 04:45:12;;;;;;;7.35;3.10;;;4.40;99.90;;;;;;5083854;28;20052;-55
2023/04/12 04:47:42;;;;;;;5.65;2.92;;;4.40;99.90;;;;;;5127496;27;20068;-51
2023/04/12 04:50:09;;;;;;;5.38;2.95;;;4.40;99.90;;;;;;5093421;28;20051;-53
2023/04/12 04:52:38;;;;;;;6.55;3.47;;;4.40;99.90;;;;;;5110439;28;20055;-56
2023/04/12 04:55:09;;;;;;;6.97;3.67;;;4.40;99.90;;;;;;5088500;28;20052;-55
2023/04/12 04:57:40;;;;;;;7.45;3.50;;;4.40;99.90;;;;;;5096757;28;20040;-56
2023/04/12 05:00:09;;;;;;;8.55;3.95;;;4.40;99.90;;;;;;5075551;28;20051;-51
2023/04/12 05:02:41;;;;;;;14.57;6.95;;;4.50;99.90;;;;;;5077881;28;20039;-51
2023/04/12 05:05:14;;;;;;;16.65;7.00;;;4.40;99.90;;;;;;5072880;28;20052;-54
2023/04/12 05:07:43;;;;;;;15.75;6.35;;;4.40;99.90;;;;;;5073229;28;20048;-52
2023/04/12 05:10:10;;;;;;;6.63;4.47;;;4.50;99.90;;;;;;5085475;28;20677;-51
2023/04/12 05:12:39;;;;;;;6.28;3.92;;;4.50;99.90;;;;;;5113600;27;20122;-51
2023/04/12 05:15:07;;;;;;;9.35;3.83;;;4.60;99.90;;;;;;5113352;28;20437;-56
2023/04/12 05:17:39;;;;;;;7.15;3.97;;;4.50;99.90;;;;;;5087779;28;20496;-52
2023/04/12 05:20:09;;;;;;;7.10;4.15;;;4.60;99.90;;;;;;5087895;28;20504;-55
2023/04/12 05:22:37;;;;;;;9.90;3.90;;;4.60;99.90;;;;;;5113390;28;20049;-51
2023/04/12 05:25:05;;;;;;;7.78;4.50;;;4.50;99.90;;;;;;5071625;28;20040;-52
2023/04/12 05:27:36;;;;;;;10.20;5.75;;;4.60;99.90;;;;;;5113412;28;20051;-53
2023/04/12 05:30:06;;;;;;;7.55;4.32;;;4.60;99.90;;;;;;5092733;28;20161;-54
2023/04/12 05:32:36;;;;;;;7.03;3.97;;;4.60;99.90;;;;;;5132217;28;20035;-53
2023/04/12 05:35:03;;;;;;;7.32;4.07;;;4.70;99.90;;;;;;5112661;28;20050;-51
2023/04/12 05:37:30;;;;;;;14.35;4.50;;;4.80;99.90;;;;;;5113671;28;20039;-50
2023/04/12 05:39:58;;;;;;;5.55;4.00;;;4.90;99.90;;;;;;5127372;27;20027;-54
2023/04/12 05:42:25;;;;;;;13.07;3.85;;;4.90;99.90;;;;;;5117344;27;20043;-50
2023/04/12 05:44:54;;;;;;;8.32;3.83;;;5.00;99.90;;;;;;5135346;27;20043;-51
2023/04/12 05:47:21;;;;;;;8.70;3.92;;;5.00;99.90;;;;;;5109896;28;20063;-51
2023/04/12 05:49:48;;;;;;;8.27;3.65;;;5.10;99.90;;;;;;5088835;28;20043;-54
2023/04/12 05:52:17;;;;;;;9.00;3.83;;;5.20;99.90;;;;;;5077169;28;20036;-52
2023/04/12 05:54:44;;;;;;;7.70;4.05;;;5.10;99.90;;;;;;5077116;28;20043;-51
2023/04/12 05:57:16;;;;;;;8.70;4.55;;;5.10;99.90;;;;;;5094694;27;20063;-51
2023/04/12 05:59:46;;;;;;;11.65;4.82;;;5.10;99.90;;;;;;5101181;28;20047;-50
2023/04/12 06:02:13;;;;;;;7.47;3.90;;;5.20;99.90;;;;;;5096196;28;20445;-51
2023/04/12 06:04:39;;;;;;;7.47;3.78;;;5.20;99.90;;;;;;5093607;28;20129;-53
2023/04/12 06:07:18;;;;;;;9.63;3.90;;;5.20;99.90;;;;;;5091136;28;20032;-51
2023/04/12 06:09:46;;;;;;;9.68;4.35;;;5.20;99.90;;;;;;5091279;28;20588;-53
2023/04/12 06:12:12;;;;;;;7.95;4.78;;;5.20;99.90;;;;;;5095418;28;20061;-51
2023/04/12 06:14:39;;;;;;;6.63;4.70;;;5.30;99.90;;;;;;5091290;28;20040;-52
2023/04/12 06:17:07;;;;;;;6.53;3.97;;;5.30;99.90;;;;;;5092632;28;20089;-51
2023/04/12 06:19:34;;;;;;;9.15;4.25;;;5.30;99.90;;;;;;5093671;28;20443;-51
2023/04/12 06:22:00;;;;;;;7.35;3.95;;;5.30;99.90;;;;;;5075982;28;20048;-52
2023/04/12 06:24:29;;;;;;;7.15;4.13;;;5.40;99.90;;;;;;5082433;28;20047;-50
2023/04/12 06:26:56;;;;;;;7.07;4.18;;;5.50;99.90;;;;;;5087994;28;20130;-52
2023/04/12 06:29:23;;;;;;;9.18;4.65;;;5.50;99.90;;;;;;5096166;28;20432;-52
2023/04/12 06:31:50;;;;;;;11.95;4.60;;;5.60;99.90;;;;;;5091530;28;20105;-52
2023/04/12 06:34:17;;;;;;;9.13;4.00;;;5.50;99.90;;;;;;5079578;28;20031;-51
2023/04/12 06:36:46;;;;;;;;;;;5.60;99.90;;;;;;5096115;28;20043;-52
2023/04/12 06:39:15;;;;;;;9.25;4.13;;;5.60;99.90;;;;;;5113225;28;19926;-53
2023/04/12 06:41:46;;;;;;;9.38;4.45;;;5.50;99.90;;;;;;5120595;27;20039;-51
2023/04/12 06:44:18;;;;;;;11.27;4.82;;;5.60;99.90;;;;;;5101107;28;20075;-51
2023/04/12 06:46:45;;;;;;;11.63;4.90;;;5.60;99.90;;;;;;5093903;28;20047;-50
2023/04/12 06:49:12;;;;;;;8.35;3.95;;;5.60;99.90;;;;;;5103537;27;20456;-50
2023/04/12 06:51:38;;;;;;;8.50;5.03;;;5.70;99.90;;;;;;5129587;27;20084;-51
2023/04/12 06:54:05;;;;;;;9.70;5.47;;;5.80;99.90;;;;;;5113422;27;20061;-51
2023/04/12 06:56:32;;;;;;;12.43;5.00;;;5.90;99.90;;;;;;5121888;27;20435;-53
2023/04/12 06:58:58;;;;;;;11.98;4.70;;;5.90;99.90;;;;;;5133462;27;20047;-52
2023/04/12 07:01:26;;;;;;;9.77;4.47;;;6.10;99.90;;;;;;5134648;27;20074;-51
2023/04/12 07:03:52;;;;;;;7.40;4.38;;;6.20;99.90;;;;;;5116724;27;20055;-55
2023/04/12 07:06:19;;;;;;;7.65;3.70;;;6.20;99.90;;;;;;5134504;27;20042;-54
2023/04/12 07:08:52;;;;;;;7.65;4.10;;;6.20;99.90;;;;;;5133992;27;20073;-51
2023/04/12 07:11:21;;;;;;;15.02;7.47;;;6.10;99.90;;;;;;5125368;27;20071;-51
2023/04/12 07:13:49;;;;;;;7.50;5.57;;;6.10;99.90;;;;;;5112869;27;20491;-51
2023/04/12 07:16:16;;;;;;;8.00;4.00;;;6.10;99.90;;;;;;5122379;27;20500;-53
2023/04/12 07:18:43;;;;;;;;;;;6.20;99.90;;;;;;5113430;28;20096;-51
2023/04/12 07:21:13;;;;;;;6.30;4.05;;;6.30;99.90;;;;;;5110025;28;19928;-52
2023/04/12 07:23:40;;;;;;;8.27;3.85;;;6.40;99.90;;;;;;5123744;27;20043;-52
2023/04/12 07:26:06;;;;;;;6.38;3.47;;;6.60;99.90;;;;;;5113326;27;20052;-53
2023/04/12 07:28:35;;;;;;;4.93;2.85;;;6.70;99.90;;;;;;5121384;27;20039;-52
2023/04/12 07:31:05;;;;;;;7.30;3.78;;;6.90;99.90;;;;;;5133375;27;20031;-54
2023/04/12 07:33:34;;;;;;;6.40;4.00;;;7.10;99.90;;;;;;5124707;27;20090;-51
2023/04/12 07:36:02;;;;;;;6.53;3.90;;;7.10;99.90;;;;;;5128991;27;20038;-51
2023/04/12 07:38:28;;;;;;;;;;;7.30;99.90;;;;;;5133188;27;20047;-51
2023/04/12 07:40:55;;;;;;;6.30;4.07;;;7.40;99.90;;;;;;5134314;27;19923;-50
2023/04/12 07:43:22;;;;;;;7.18;3.60;;;7.50;99.90;;;;;;5103587;27;20040;-50
2023/04/12 07:45:49;;;;;;;5.70;3.60;;;7.50;99.90;;;;;;5109264;28;20093;-51
2023/04/12 07:48:16;;;;;;;7.80;3.38;;;7.40;99.90;;;;;;5112779;28;20044;-51
2023/04/12 07:50:43;;;;;;;6.13;3.95;;;7.40;99.90;;;;;;5099369;28;20048;-52
2023/04/12 07:53:21;;;;;;;5.53;3.85;;;7.40;99.90;;;;;;5131705;27;20479;-51
2023/04/12 07:55:48;;;;;;;7.20;4.10;;;7.50;99.90;;;;;;5115034;27;20079;-52
2023/04/12 07:58:16;;;;;;;7.45;4.43;;;7.60;99.90;;;;;;5133669;27;20108;-51
2023/04/12 08:00:43;;;;;;;5.50;3.75;;;7.70;99.90;;;;;;5100619;28;20074;-51
2023/04/12 08:03:12;;;;;;;6.50;3.33;;;7.70;99.90;;;;;;5131443;27;20078;-51
2023/04/12 08:05:39;;;;;;;7.97;4.05;;;7.70;99.90;;;;;;5127384;27;20043;-52
2023/04/12 08:08:07;;;;;;;;;;;7.80;99.90;;;;;;5130711;27;20483;-50
2023/04/12 08:10:34;;;;;;;8.23;4.10;;;7.90;99.90;;;;;;5113838;27;19923;-52
2023/04/12 08:13:00;;;;;;;6.95;4.00;;;7.90;99.90;;;;;;5133173;27;20050;-52
2023/04/12 08:15:37;;;;;;;6.15;3.65;;;7.90;99.90;;;;;;5113971;27;20059;-54
2023/04/12 08:18:04;;;;;;;5.57;4.00;;;8.00;99.90;;;;;;5059579;28;20131;-53
2023/04/12 08:20:31;;;;;;;6.95;3.03;;;8.00;99.90;;;;;;5058237;28;20054;-53
2023/04/12 08:22:58;;;;;;;7.00;3.80;;;7.90;99.90;;;;;;5063987;28;20545;-54
2023/04/12 08:25:25;;;;;;;5.88;3.78;;;7.80;99.90;;;;;;5065032;28;20033;-52
2023/04/12 08:27:51;;;;;;;8.75;4.03;;;7.80;99.90;;;;;;5033768;28;20094;-50
2023/04/12 08:30:18;;;;;;;7.75;3.88;;;7.80;99.90;;;;;;5033332;28;20442;-55
2023/04/12 08:32:45;;;;;;;8.82;4.05;;;8.00;99.90;;;;;;5050540;28;20098;-51
2023/04/12 08:35:13;;;;;;;9.68;4.40;;;8.00;99.90;;;;;;5051825;28;20596;-52
2023/04/12 08:37:40;;;;;;;17.58;5.57;;;7.90;99.90;;;;;;5051407;28;20107;-51
2023/04/12 08:40:08;;;;;;;7.35;3.78;;;7.90;99.90;;;;;;5051166;28;20107;-53
2023/04/12 08:42:37;;;;;;;;;;;8.10;99.90;;;;;;5046527;28;20036;-53
2023/04/12 08:45:10;;;;;;;5.85;3.50;;;8.00;99.90;;;;;;5051427;28;20112;-52
2023/04/12 08:47:41;;;;;;;6.22;3.63;;;8.10;99.90;;;;;;5047024;28;20029;-51
2023/04/12 08:50:12;;;;;;;9.80;4.35;;;8.10;99.90;;;;;;5054856;28;20068;-55
2023/04/12 08:52:40;;;;;;;7.18;4.53;;;8.20;99.90;;;;;;5053042;28;20036;-53
2023/04/12 08:55:08;;;;;;;7.78;3.53;;;8.50;99.90;;;;;;5062134;28;20482;-54
2023/04/12 08:57:37;;;;;;;8.00;3.55;;;8.60;99.90;;;;;;5050876;28;20423;-53
2023/04/12 09:00:08;;;;;;;9.27;4.22;;;8.80;99.90;;;;;;5050115;28;20063;-50
2023/04/12 09:02:36;;;;;;;6.22;3.58;;;8.80;99.90;;;;;;5051222;28;20175;-50
2023/04/12 09:05:05;;;;;;;7.78;3.28;;;8.70;99.90;;;;;;5040232;28;20069;-50
2023/04/12 09:07:32;;;;;;;4.60;3.40;;;8.70;99.90;;;;;;5050937;28;20045;-50
2023/04/12 09:09:59;;;;;;;8.48;3.83;;;8.70;99.90;;;;;;5050680;28;20053;-54
2023/04/12 09:12:26;;;;;;;6.30;2.97;;;8.60;99.90;;;;;;5053755;28;20045;-51
2023/04/12 09:15:13;;;;;;;9.55;3.92;;;8.50;99.90;;;;;;5034022;28;20041;-54
2023/04/12 09:17:41;;;;;;;14.27;5.38;;;8.30;99.90;;;;;;5031002;28;20049;-52
2023/04/12 09:20:11;;;;;;;8.68;5.43;;;8.20;99.90;;;;;;5030630;28;20132;-52
2023/04/12 09:22:43;;;;;;;12.02;6.45;;;8.20;99.90;;;;;;5033869;28;20056;-51
2023/04/12 09:25:10;;;;;;;6.88;3.60;;;8.10;99.90;;;;;;5031092;28;20091;-53
2023/04/12 09:27:47;;;;;;;6.97;2.90;;;7.90;99.90;;;;;;5030650;28;20529;-53
2023/04/12 09:30:15;;;;;;;6.70;3.23;;;7.80;99.90;;;;;;5033068;28;20480;-50
2023/04/12 09:32:43;;;;;;;6.93;3.55;;;7.70;99.90;;;;;;5050683;28;20025;-51
2023/04/12 09:35:10;;;;;;;10.13;3.88;;;7.90;99.90;;;;;;5049196;28;20083;-52
2023/04/12 09:37:37;;;;;;;8.45;3.70;;;8.00;99.90;;;;;;5050859;28;20497;-52
2023/04/12 09:40:06;;;;;;;;;;;8.30;99.90;;;;;;5050134;28;20106;-51
2023/04/12 09:42:34;;;;;;;7.03;2.97;;;8.60;99.90;;;;;;5050423;28;19927;-53
2023/04/12 09:45:24;;;;;;;9.30;3.30;;;9.00;99.90;;;;;;5036412;28;20042;-52
2023/04/12 09:47:52;;;;;;;6.40;2.58;;;9.30;99.90;;;;;;5050874;28;20037;-50
2023/04/12 09:50:25;;;;;;;4.97;2.05;;;9.10;99.90;;;;;;5050218;28;20464;-53
2023/04/12 09:52:52;;;;;;;8.05;2.65;;;9.00;99.90;;;;;;5050353;28;20033;-50
2023/04/12 09:55:21;;;;;;;3.03;2.20;;;8.90;99.90;;;;;;5049511;28;20041;-51
2023/04/12 09:57:50;;;;;;;7.85;2.20;;;8.70;99.90;;;;;;5050237;28;20071;-52
2023/04/12 10:00:18;;;;;;;4.28;2.25;;;8.60;99.90;;;;;;5050117;28;20128;-51
2023/04/12 10:02:47;;;;;;;6.25;2.63;;;8.60;99.90;;;;;;5039816;28;20561;-50
2023/04/12 10:05:18;;;;;;;6.28;2.35;;;8.60;99.90;;;;;;5032261;28;20052;-50
2023/04/12 10:07:46;;;;;;;6.55;2.13;;;8.60;99.90;;;;;;5048865;28;20497;-51
2023/04/12 10:10:15;;;;;;;8.98;2.50;;;8.70;99.90;;;;;;5030602;28;20038;-52
2023/04/12 10:12:44;;;;;;;4.47;2.22;;;8.80;99.90;;;;;;5029598;28;20095;-50
2023/04/12 10:15:12;;;;;;;5.68;2.47;;;9.00;99.90;;;;;;5030884;28;20045;-50
2023/04/12 10:17:46;;;;;;;5.78;2.75;;;9.10;99.90;;;;;;5043866;28;20041;-51
2023/04/12 10:20:15;;;;;;;7.30;2.88;;;9.30;99.90;;;;;;5069371;28;20087;-50
2023/04/12 10:22:45;;;;;;;7.22;2.38;;;9.60;99.90;;;;;;5070411;28;20045;-50
2023/04/12 10:25:17;;;;;;;6.15;1.90;;;9.90;99.90;;;;;;5055219;28;20053;-50
2023/04/12 10:27:45;;;;;;;4.75;2.10;;;10.10;99.90;;;;;;5033839;28;20045;-51
2023/04/12 10:30:22;;;;;;;5.10;1.90;;;10.30;99.90;;;;;;5033707;28;20041;-50
2023/04/12 10:33:01;;;;;;;4.93;1.70;;;10.40;99.90;;;;;;5034643;28;20037;-50
2023/04/12 10:35:29;;;;;;;5.47;2.00;;;10.50;99.90;;;;;;5049054;28;20075;-50
2023/04/12 10:37:58;;;;;;;3.53;1.80;;;10.30;99.90;;;;;;5033943;28;20083;-50
2023/04/12 10:40:24;;;;;;;3.60;1.88;;;10.10;99.90;;;;;;5034176;28;20073;-51
2023/04/12 10:43:19;;;;;;;3.10;1.67;;;10.50;99.90;;;;;;5035799;28;20049;-52
2023/04/12 10:45:46;;;;;;;4.18;2.05;;;10.80;99.90;;;;;;5053882;28;20049;-51
2023/04/12 10:48:31;;;;;;;2.95;1.70;;;11.10;99.90;;;;;;5053610;28;20460;-50
2023/04/12 10:51:14;;;;;;;9.88;2.40;;;11.00;99.90;;;;;;5053040;28;20045;-51
2023/04/12 10:53:41;;;;;;;4.28;2.05;;;11.30;99.90;;;;;;5042021;28;20346;-50
2023/04/12 10:56:30;;;;;;;4.70;1.92;;;11.80;99.90;;;;;;5018395;28;20064;-53
2023/04/12 10:58:59;;;;;;;3.88;1.65;;;11.60;99.90;;;;;;5052955;28;20095;-50
2023/04/12 11:01:31;;;;;;;5.15;1.52;;;11.40;99.90;;;;;;5052490;28;20440;-55
2023/04/12 11:04:18;;;;;;;5.22;1.80;;;11.20;99.90;;;;;;5053725;28;20056;-50
2023/04/12 11:07:03;;;;;;;3.92;1.50;;;11.30;99.90;;;;;;5052061;28;20095;-51
2023/04/12 11:09:49;;;;;;;2.20;1.60;;;11.00;99.90;;;;;;5052627;28;20473;-54
2023/04/12 11:12:27;;;;;;;4.05;1.50;;;10.90;99.90;;;;;;5067585;28;20040;-50
2023/04/12 11:14:59;;;;;;;2.25;1.50;;;11.00;99.90;;;;;;5092810;28;20040;-51
2023/04/12 11:17:31;;;;;;;3.13;1.75;;;11.10;99.90;;;;;;5056224;28;20045;-50
2023/04/12 11:20:00;;;;;;;2.83;1.38;;;11.20;99.90;;;;;;5055232;28;20040;-50
2023/04/12 11:22:29;;;;;;;3.10;1.67;;;11.50;99.90;;;;;;5052641;28;20053;-50
2023/04/12 11:24:58;;;;;;;6.28;2.50;;;11.60;99.90;;;;;;5053234;28;20033;-51
2023/04/12 11:27:26;;;;;;;4.00;1.50;;;11.70;99.90;;;;;;5060233;28;20503;-50
2023/04/12 11:29:58;;;;;;;6.10;1.70;;;12.00;99.90;;;;;;5052644;28;20036;-50
2023/04/12 11:32:27;;;;;;;3.22;1.67;;;12.30;99.90;;;;;;5052547;28;20386;-50
2023/04/12 11:34:55;;;;;;;3.30;1.50;;;12.60;99.90;;;;;;5052994;28;20041;-50
2023/04/12 11:37:23;;;;;;;2.17;1.40;;;13.00;99.90;;;;;;5051924;28;20394;-52
2023/04/12 11:39:50;;;;;;;;;;;13.30;99.90;;;;;;5052623;28;20501;-51
2023/04/12 11:42:19;;;;;;;3.83;1.77;;;13.60;99.90;;;;;;5052721;28;19970;-50
2023/04/12 11:44:47;;;;;;;3.03;1.83;;;13.50;99.90;;;;;;5053603;28;20049;-50
2023/04/12 11:47:26;;;;;;;3.90;1.67;;;13.40;99.90;;;;;;5053991;28;20986;-51
2023/04/12 11:49:58;;;;;;;3.35;1.52;;;13.60;99.90;;;;;;5055425;28;20068;-50
2023/04/12 11:52:29;;;;;;;2.20;1.50;;;13.60;99.90;;;;;;5051662;28;20107;-50
2023/04/12 11:55:05;;;;;;;6.10;1.85;;;13.80;99.90;;;;;;5052449;28;20053;-51
2023/04/12 11:57:33;;;;;;;5.88;1.63;;;13.90;99.90;;;;;;5057142;28;20047;-51
2023/04/12 12:00:00;;;;;;;8.30;1.60;;;14.00;99.90;;;;;;5057685;28;20037;-53
2023/04/12 12:02:27;;;;;;;8.02;1.92;;;14.00;99.90;;;;;;5051387;28;20049;-51
2023/04/12 12:05:02;;;;;;;3.85;1.60;;;13.80;99.90;;;;;;5050956;28;20550;-51
2023/04/12 12:07:30;;;;;;;2.33;1.35;;;13.60;99.90;;;;;;5057999;28;20045;-50
2023/04/12 12:09:57;;;;;;;4.75;1.60;;;13.60;99.90;;;;;;5063686;28;20083;-52
2023/04/12 12:12:26;;;;;;;7.03;1.33;;;13.60;99.90;;;;;;5072195;28;20064;-50
2023/04/12 12:14:52;;;;;;;3.00;1.52;;;13.60;99.90;;;;;;5052528;28;20064;-51
2023/04/12 12:17:19;;;;;;;2.53;1.67;;;13.60;99.90;;;;;;5033996;28;20099;-51
2023/04/12 12:19:46;;;;;;;4.82;1.95;;;13.70;99.90;;;;;;5051557;28;20052;-50
2023/04/12 12:22:15;;;;;;;3.40;1.63;;;13.40;99.90;;;;;;5052171;28;20036;-50
2023/04/12 12:24:56;;;;;;;6.38;1.30;;;13.40;99.90;;;;;;5060673;28;20098;-50
2023/04/12 12:27:34;;;;;;;2.05;1.30;;;13.50;99.90;;;;;;5052149;28;20037;-50
2023/04/12 12:30:03;;;;;;;4.35;1.33;;;13.80;99.90;;;;;;5051999;28;20040;-50
2023/04/12 12:32:34;;;;;;;3.53;1.65;;;14.10;99.90;;;;;;5051814;28;20037;-50
2023/04/12 12:35:01;;;;;;;2.65;1.40;;;14.50;99.90;;;;;;5052015;28;20049;-51
2023/04/12 12:37:29;;;;;;;3.08;1.65;;;14.60;99.90;;;;;;5051659;28;20494;-51
2023/04/12 12:40:16;;;;;;;3.25;1.40;;;14.70;99.90;;;;;;5052299;28;20060;-50
2023/04/12 12:42:52;;;;;;;3.08;1.10;;;15.00;99.90;;;;;;5051663;28;20160;-51
2023/04/12 12:45:25;;;;;;;3.25;1.52;;;14.80;99.90;;;;;;5051613;28;20044;-52
2023/04/12 12:48:02;;;;;;;2.10;1.20;;;15.00;99.90;;;;;;5064554;28;20476;-50
2023/04/12 12:50:31;;;;;;;;;;;14.80;99.90;;;;;;5064729;28;20037;-50
2023/04/12 12:53:01;;;;;;;3.58;1.50;;;14.60;99.90;;;;;;5070645;28;19931;-51
2023/04/12 12:55:29;;;;;;;2.75;1.45;;;14.80;99.90;;;;;;5069955;28;20094;-50
2023/04/12 12:57:57;;;;;;;3.92;1.58;;;14.80;99.90;;;;;;5071189;28;20031;-51
2023/04/12 13:00:28;;;;;;;5.15;2.50;;;15.00;99.90;;;;;;5069949;28;20068;-51
2023/04/12 13:02:54;;;;;;;4.40;1.60;;;14.90;99.90;;;;;;5071345;28;20052;-51
2023/04/12 13:05:22;;;;;;;4.22;1.35;;;14.70;99.90;;;;;;5064464;28;20049;-53
2023/04/12 13:07:49;;;;;;;2.00;1.35;;;14.70;99.90;;;;;;5051161;28;20120;-52
2023/04/12 13:10:16;;;;;;;1.90;1.23;;;15.00;99.90;;;;;;5050658;28;20466;-51
2023/04/12 13:12:43;;;;;;;2.88;1.25;;;15.30;99.90;;;;;;5051321;28;20058;-51